Time;durP1;ratioP1;P1;durP2;ratioP2;P2;SDS_P1;SDS_P2;PMS_P1;PMS_P2;Temp;Humidity;BMP_temperature;BMP_pressure;BME280_temperature;BME280_humidity;BME280_pressure;Samples;Min_cycle;Max_cycle;Signal;HPM_P1;HPM_P2
2023/04/10 00:01:42;;;;;;;32.42;18.83;;;9.00;99.90;;;;;;7399993;19;19929;-73
2023/04/10 00:04:14;;;;;;;;;;;9.10;99.90;;;;;;7403249;19;19922;-73
2023/04/10 00:06:43;;;;;;;35.92;19.13;;;9.00;99.90;;;;;;7399172;19;19910;-73
2023/04/10 00:09:12;;;;;;;29.08;17.50;;;9.00;99.90;;;;;;7398764;19;19932;-73
2023/04/10 00:11:41;;;;;;;33.47;19.85;;;9.00;99.90;;;;;;7403649;19;19922;-73
2023/04/10 00:14:12;;;;;;;34.38;19.85;;;9.00;99.90;;;;;;7400105;19;19966;-73
2023/04/10 00:16:42;;;;;;;37.33;20.98;;;8.90;99.90;;;;;;7399728;19;19939;-73
2023/04/10 00:19:11;;;;;;;36.67;20.05;;;8.90;99.90;;;;;;7400165;19;19942;-73
2023/04/10 00:21:40;;;;;;;35.95;21.30;;;8.80;99.90;;;;;;7398534;19;20494;-72
2023/04/10 00:24:09;;;;;;;33.55;18.90;;;8.90;99.90;;;;;;7398728;19;20316;-73
2023/04/10 00:26:42;;;;;;;37.17;21.08;;;8.80;99.90;;;;;;7399547;19;19942;-73
2023/04/10 00:29:13;;;;;;;35.75;21.17;;;8.80;99.90;;;;;;7399102;19;19925;-72
2023/04/10 00:31:45;;;;;;;38.95;21.48;;;8.60;99.90;;;;;;7403199;19;19927;-73
2023/04/10 00:34:14;;;;;;;38.63;22.10;;;8.70;99.90;;;;;;7398686;19;19914;-73
2023/04/10 00:36:47;;;;;;;37.72;21.10;;;8.60;99.90;;;;;;7398874;19;19930;-72
2023/04/10 00:39:16;;;;;;;40.65;21.45;;;8.40;99.90;;;;;;7399269;19;19910;-73
2023/04/10 00:41:45;;;;;;;35.47;21.70;;;8.40;99.90;;;;;;7397788;19;19935;-73
2023/04/10 00:44:17;;;;;;;34.63;21.10;;;8.40;99.90;;;;;;7400263;19;20022;-72
2023/04/10 00:46:47;;;;;;;39.03;21.95;;;8.30;99.90;;;;;;7401425;19;19919;-72
2023/04/10 00:49:17;;;;;;;35.50;21.00;;;8.40;99.90;;;;;;7398946;19;19911;-72
2023/04/10 00:51:46;;;;;;;37.28;21.50;;;8.40;99.90;;;;;;7399026;19;19939;-73
2023/04/10 00:54:15;;;;;;;34.78;20.98;;;8.30;99.90;;;;;;7398426;19;19935;-72
2023/04/10 00:56:46;;;;;;;37.38;21.92;;;8.30;99.90;;;;;;7399051;19;19915;-72
2023/04/10 00:59:18;;;;;;;38.80;21.85;;;8.30;99.90;;;;;;7398876;19;19923;-73
2023/04/10 01:01:47;;;;;;;35.47;21.65;;;8.40;99.90;;;;;;7399281;19;19921;-72
2023/04/10 01:04:20;;;;;;;33.88;21.15;;;8.30;99.90;;;;;;7398169;19;19919;-72
2023/04/10 01:06:58;;;;;;;37.65;22.23;;;8.20;99.90;;;;;;7398274;19;19915;-73
2023/04/10 01:09:39;;;;;;;40.22;22.85;;;9.30;99.90;;;;;;7398531;19;19911;-72
2023/04/10 01:12:17;;;;;;;38.03;22.02;;;8.30;99.90;;;;;;7398364;19;19915;-72
2023/04/10 01:15:00;;;;;;;35.90;21.83;;;8.10;99.90;;;;;;7398436;19;19915;-72
2023/04/10 01:17:37;;;;;;;37.55;21.45;;;8.10;99.90;;;;;;7397956;19;20523;-72
2023/04/10 01:20:11;;;;;;;38.63;21.58;;;8.10;99.90;;;;;;7408623;19;19918;-72
2023/04/10 01:22:54;;;;;;;35.15;21.13;;;8.00;99.90;;;;;;7403685;19;19918;-73
2023/04/10 01:25:41;;;;;;;32.75;20.13;;;8.20;99.90;;;;;;7404395;19;19950;-72
2023/04/10 01:28:32;;;;;;;33.08;20.83;;;7.90;99.90;;;;;;7404807;19;19982;-71
2023/04/10 01:31:06;;;;;;;34.70;20.10;;;8.00;99.90;;;;;;7406528;19;19946;-72
2023/04/10 01:33:42;;;;;;;36.08;22.45;;;8.00;99.90;;;;;;7403898;19;19915;-72
2023/04/10 01:36:12;;;;;;;36.70;19.85;;;8.00;99.90;;;;;;7407465;19;20352;-71
2023/04/10 01:38:44;;;;;;;38.58;22.17;;;7.90;99.90;;;;;;7404497;19;19922;-72
2023/04/10 01:41:14;;;;;;;35.85;21.92;;;8.80;99.90;;;;;;7403653;19;20312;-72
2023/04/10 01:43:44;;;;;;;35.95;20.52;;;7.90;99.90;;;;;;7404226;19;19954;-73
2023/04/10 01:46:16;;;;;;;33.58;21.33;;;7.90;99.90;;;;;;7408732;19;19915;-72
2023/04/10 01:48:46;;;;;;;34.08;21.08;;;7.70;99.90;;;;;;7404047;19;19914;-72
2023/04/10 01:51:17;;;;;;;35.65;21.20;;;7.70;99.90;;;;;;7404164;19;19938;-71
2023/04/10 01:53:47;;;;;;;34.30;20.50;;;7.80;99.90;;;;;;7406361;19;19946;-72
2023/04/10 01:56:17;;;;;;;34.10;21.73;;;7.60;99.90;;;;;;7403675;19;19985;-72
2023/04/10 01:58:46;;;;;;;36.30;20.42;;;7.60;99.90;;;;;;7406312;19;19978;-72
2023/04/10 02:01:23;;;;;;;35.78;21.48;;;7.60;99.90;;;;;;7403980;19;19934;-72
2023/04/10 02:03:52;;;;;;;39.50;21.73;;;7.40;99.90;;;;;;7403157;19;19930;-72
2023/04/10 02:06:30;;;;;;;37.05;21.73;;;7.50;99.90;;;;;;7403090;19;19966;-72
2023/04/10 02:09:09;;;;;;;33.83;19.50;;;7.60;99.90;;;;;;7404054;19;19974;-72
2023/04/10 02:11:44;;;;;;;39.40;21.25;;;7.90;99.90;;;;;;7403364;19;19920;-72
2023/04/10 02:14:17;;;;;;;35.90;21.60;;;7.60;99.90;;;;;;7403060;19;19942;-72
2023/04/10 02:16:51;;;;;;;33.47;20.85;;;7.50;99.90;;;;;;7403286;19;19915;-72
2023/04/10 02:19:22;;;;;;;33.33;20.00;;;7.50;99.90;;;;;;7403662;19;19927;-72
2023/04/10 02:21:52;;;;;;;36.42;21.65;;;7.30;99.90;;;;;;7401886;19;19918;-72
2023/04/10 02:24:23;;;;;;;34.28;19.33;;;7.20;99.90;;;;;;7401925;19;20522;-72
2023/04/10 02:26:53;;;;;;;33.70;20.30;;;7.40;99.90;;;;;;7403750;19;20047;-72
2023/04/10 02:29:22;;;;;;;34.33;20.23;;;7.10;99.90;;;;;;7403029;19;19986;-72
2023/04/10 02:31:54;;;;;;;38.08;21.05;;;7.60;99.90;;;;;;7402670;19;19931;-72
2023/04/10 02:34:24;;;;;;;32.45;19.15;;;7.30;99.90;;;;;;7403298;19;20371;-72
2023/04/10 02:36:53;;;;;;;32.17;19.15;;;7.10;99.90;;;;;;7402676;19;19923;-72
2023/04/10 02:39:22;;;;;;;33.30;19.88;;;7.30;99.90;;;;;;7403124;19;19919;-72
2023/04/10 02:41:51;;;;;;;33.03;17.77;;;7.20;99.90;;;;;;7401647;19;20248;-72
2023/04/10 02:44:20;;;;;;;32.10;18.40;;;7.10;99.90;;;;;;7406626;19;19987;-72
2023/04/10 02:46:49;;;;;;;33.63;18.88;;;7.70;99.90;;;;;;7402680;19;19919;-71
2023/04/10 02:49:20;;;;;;;36.35;19.17;;;7.20;99.90;;;;;;7402455;19;19926;-72
2023/04/10 02:51:49;;;;;;;35.40;18.85;;;8.30;99.90;;;;;;7402413;19;20461;-71
2023/04/10 02:54:18;;;;;;;33.58;19.73;;;7.30;99.90;;;;;;7401267;19;19982;-72
2023/04/10 02:56:47;;;;;;;34.20;19.98;;;7.10;99.90;;;;;;7402052;19;19914;-72
2023/04/10 02:59:16;;;;;;;38.47;19.38;;;7.50;99.90;;;;;;7402385;19;19919;-72
2023/04/10 03:01:45;;;;;;;32.13;18.20;;;7.10;99.90;;;;;;7404337;19;19918;-72
2023/04/10 03:04:14;;;;;;;33.30;17.85;;;7.10;99.90;;;;;;7402100;19;19918;-72
2023/04/10 03:06:46;;;;;;;35.65;20.45;;;7.00;99.90;;;;;;7402045;19;19953;-72
2023/04/10 03:09:15;;;;;;;32.58;18.10;;;7.60;99.90;;;;;;7402001;19;19914;-71
2023/04/10 03:11:44;;;;;;;36.22;19.33;;;6.90;99.90;;;;;;7403128;19;19922;-72
2023/04/10 03:14:13;;;;;;;30.70;19.55;;;6.10;99.90;;;;;;7403789;19;19922;-72
2023/04/10 03:16:42;;;;;;;35.00;19.00;;;7.60;99.90;;;;;;7401682;19;20271;-72
2023/04/10 03:19:11;;;;;;;34.75;19.63;;;7.00;99.90;;;;;;7401489;19;19914;-72
2023/04/10 03:21:40;;;;;;;37.45;18.00;;;7.00;99.90;;;;;;7400582;19;19919;-73
2023/04/10 03:24:11;;;;;;;33.13;18.42;;;7.00;99.90;;;;;;7400150;19;20255;-72
2023/04/10 03:26:40;;;;;;;36.50;19.00;;;5.10;99.90;;;;;;7397959;19;20554;-72
2023/04/10 03:29:09;;;;;;;34.35;19.17;;;7.90;99.90;;;;;;7401298;19;19937;-73
2023/04/10 03:31:38;;;;;;;36.92;20.80;;;6.90;99.90;;;;;;7402058;19;20340;-72
2023/04/10 03:34:07;;;;;;;35.13;20.42;;;6.70;99.90;;;;;;7401985;19;19982;-71
2023/04/10 03:36:36;;;;;;;34.85;19.60;;;6.80;99.90;;;;;;7401061;19;19937;-72
2023/04/10 03:39:05;;;;;;;34.63;19.20;;;6.80;99.90;;;;;;7401770;19;19933;-71
2023/04/10 03:41:36;;;;;;;32.75;18.70;;;7.50;99.90;;;;;;7400390;19;19982;-72
2023/04/10 03:44:05;;;;;;;34.80;18.83;;;6.80;99.90;;;;;;7400380;19;19921;-72
2023/04/10 03:46:34;;;;;;;36.03;19.52;;;6.90;99.90;;;;;;7400447;19;19921;-73
2023/04/10 03:49:03;;;;;;;33.50;18.50;;;6.70;99.90;;;;;;7401574;19;19926;-72
2023/04/10 03:51:32;;;;;;;32.25;19.55;;;6.70;99.90;;;;;;7402636;19;19925;-71
2023/04/10 03:54:01;;;;;;;33.88;19.02;;;6.70;99.90;;;;;;7400505;19;20129;-72
2023/04/10 03:56:30;;;;;;;29.50;18.10;;;6.50;99.90;;;;;;7400500;19;19914;-72
2023/04/10 03:59:01;;;;;;;36.88;19.70;;;6.60;99.90;;;;;;7400444;19;19978;-72
2023/04/10 04:01:31;;;;;;;34.38;18.20;;;7.20;99.90;;;;;;7400173;19;19921;-72
2023/04/10 04:04:00;;;;;;;35.33;18.65;;;7.10;99.90;;;;;;7402698;19;19918;-72
2023/04/10 04:06:30;;;;;;;37.28;19.58;;;6.60;99.90;;;;;;7400271;19;19923;-72
2023/04/10 04:08:59;;;;;;;35.35;18.60;;;6.60;99.90;;;;;;7403221;19;20332;-72
2023/04/10 04:11:28;;;;;;;32.05;17.38;;;6.50;99.90;;;;;;7399945;19;19926;-72
2023/04/10 04:13:57;;;;;;;32.90;18.52;;;7.30;99.90;;;;;;7403457;19;19921;-72
2023/04/10 04:16:29;;;;;;;32.95;17.55;;;6.40;99.90;;;;;;7399793;19;19923;-71
2023/04/10 04:18:58;;;;;;;35.03;17.92;;;7.10;99.90;;;;;;7400301;19;19946;-72
2023/04/10 04:21:27;;;;;;;35.05;20.35;;;6.40;99.90;;;;;;7399768;19;20003;-71
2023/04/10 04:23:56;;;;;;;33.63;18.40;;;6.50;99.90;;;;;;7398626;19;19924;-71
2023/04/10 04:26:25;;;;;;;31.02;17.65;;;6.60;99.90;;;;;;7401796;19;20248;-72
2023/04/10 04:28:54;;;;;;;32.47;18.00;;;6.50;99.90;;;;;;7399307;19;19938;-72
2023/04/10 04:31:24;;;;;;;30.52;18.40;;;6.50;99.90;;;;;;7400042;19;19918;-72
2023/04/10 04:33:55;;;;;;;32.50;18.08;;;6.60;99.90;;;;;;7399254;19;19926;-72
2023/04/10 04:36:24;;;;;;;33.50;18.52;;;5.40;99.90;;;;;;7399679;19;19925;-72
2023/04/10 04:38:53;;;;;;;32.75;18.30;;;6.60;99.90;;;;;;7398901;19;19941;-73
2023/04/10 04:41:22;;;;;;;29.85;17.85;;;7.00;99.90;;;;;;7402240;19;20305;-72
2023/04/10 04:43:52;;;;;;;33.55;18.00;;;6.60;99.90;;;;;;7403084;19;19938;-73
2023/04/10 04:46:21;;;;;;;31.08;17.27;;;6.60;99.90;;;;;;7399441;19;19931;-72
2023/04/10 04:48:49;;;;;;;30.20;17.63;;;6.80;99.90;;;;;;7399457;19;19936;-72
2023/04/10 04:51:21;;;;;;;29.90;16.67;;;6.70;99.90;;;;;;7398859;19;20335;-73
2023/04/10 04:53:50;;;;;;;32.83;19.67;;;6.60;99.90;;;;;;7400407;19;19918;-71
2023/04/10 04:56:19;;;;;;;33.95;18.25;;;7.10;99.90;;;;;;7405123;19;19911;-72
2023/04/10 04:58:48;;;;;;;36.22;19.52;;;6.70;99.90;;;;;;7405606;19;20336;-72
2023/04/10 05:01:17;;;;;;;34.80;18.58;;;6.80;99.90;;;;;;7405642;19;19939;-72
2023/04/10 05:03:45;;;;;;;31.30;18.50;;;6.80;99.90;;;;;;7404132;19;19924;-72
2023/04/10 05:06:16;;;;;;;32.53;18.15;;;7.20;99.90;;;;;;7405460;19;19997;-73
2023/04/10 05:08:48;;;;;;;32.33;18.08;;;6.80;99.90;;;;;;7405472;19;19942;-72
2023/04/10 05:11:17;;;;;;;33.00;18.83;;;7.50;99.90;;;;;;7405339;19;19989;-72
2023/04/10 05:13:46;;;;;;;31.35;18.38;;;6.70;99.90;;;;;;7404860;19;20340;-72
2023/04/10 05:16:16;;;;;;;32.00;17.77;;;6.90;99.90;;;;;;7406072;19;20470;-72
2023/04/10 05:18:45;;;;;;;32.40;18.48;;;7.10;99.90;;;;;;7404793;19;19914;-72
2023/04/10 05:21:14;;;;;;;37.38;19.27;;;7.00;99.90;;;;;;7404348;19;19915;-71
2023/04/10 05:23:43;;;;;;;33.78;18.17;;;7.10;99.90;;;;;;7401418;19;19978;-72
2023/04/10 05:26:15;;;;;;;32.80;17.13;;;6.90;99.90;;;;;;7403535;19;19935;-72
2023/04/10 05:28:44;;;;;;;33.45;17.25;;;7.10;99.90;;;;;;7404445;19;19918;-73
2023/04/10 05:31:13;;;;;;;32.40;17.92;;;6.80;99.90;;;;;;7404870;19;19925;-73
2023/04/10 05:33:42;;;;;;;36.72;19.02;;;7.60;99.90;;;;;;7406159;19;19922;-72
2023/04/10 05:36:12;;;;;;;32.05;18.45;;;7.10;99.90;;;;;;7404473;19;19918;-71
2023/04/10 05:38:41;;;;;;;33.80;18.23;;;7.10;99.90;;;;;;7404508;19;19926;-71
2023/04/10 05:41:10;;;;;;;34.65;19.00;;;7.10;99.90;;;;;;7403715;19;19922;-73
2023/04/10 05:43:41;;;;;;;33.17;18.90;;;7.20;99.90;;;;;;7402179;19;19921;-73
2023/04/10 05:46:10;;;;;;;31.75;17.92;;;8.40;99.90;;;;;;7404138;19;19917;-71
2023/04/10 05:48:39;;;;;;;34.70;17.35;;;7.10;99.90;;;;;;7403866;19;20383;-71
2023/04/10 05:51:09;;;;;;;31.70;18.05;;;7.30;99.90;;;;;;7406900;19;19918;-71
2023/04/10 05:53:38;;;;;;;33.80;19.30;;;7.30;99.90;;;;;;7403551;19;19990;-71
2023/04/10 05:56:07;;;;;;;34.65;19.02;;;7.20;99.90;;;;;;7404003;19;19926;-72
2023/04/10 05:58:36;;;;;;;34.40;19.35;;;8.10;99.90;;;;;;7404253;19;20035;-72
2023/04/10 06:01:08;;;;;;;32.67;18.73;;;7.40;99.90;;;;;;7403766;19;19950;-72
2023/04/10 06:03:37;;;;;;;32.60;18.85;;;7.40;99.90;;;;;;7404894;19;19921;-71
2023/04/10 06:06:08;;;;;;;33.03;18.48;;;7.50;99.90;;;;;;7401457;19;19929;-71
2023/04/10 06:08:37;;;;;;;35.00;18.90;;;7.50;99.90;;;;;;7407663;19;19910;-72
2023/04/10 06:11:07;;;;;;;34.33;18.45;;;7.50;99.90;;;;;;7403936;19;19915;-71
2023/04/10 06:13:36;;;;;;;33.65;19.48;;;7.50;99.90;;;;;;7403327;19;19918;-71
2023/04/10 06:16:09;;;;;;;31.25;18.48;;;7.70;99.90;;;;;;7404318;19;19927;-71
2023/04/10 06:18:39;;;;;;;35.65;19.65;;;7.70;99.90;;;;;;7403220;19;19922;-71
2023/04/10 06:21:09;;;;;;;35.47;18.55;;;7.60;99.90;;;;;;7403776;19;20462;-71
2023/04/10 06:23:38;;;;;;;34.33;19.20;;;7.70;99.90;;;;;;7400566;19;19926;-71
2023/04/10 06:26:08;;;;;;;33.88;19.52;;;7.80;99.90;;;;;;7403087;19;19986;-72
2023/04/10 06:28:36;;;;;;;34.15;19.70;;;7.80;99.90;;;;;;7407494;19;19919;-73
2023/04/10 06:31:08;;;;;;;37.88;18.58;;;7.80;99.90;;;;;;7404306;19;19915;-73
2023/04/10 06:33:37;;;;;;;31.10;17.88;;;7.90;99.90;;;;;;7403960;19;19932;-72
2023/04/10 06:36:07;;;;;;;35.10;19.85;;;7.70;99.90;;;;;;7406330;19;19935;-72
2023/04/10 06:38:36;;;;;;;34.33;20.20;;;8.00;99.90;;;;;;7406810;19;19919;-72
2023/04/10 06:41:06;;;;;;;33.17;18.77;;;8.00;99.90;;;;;;7403537;19;19919;-72
2023/04/10 06:43:36;;;;;;;32.20;18.20;;;8.00;99.90;;;;;;7401179;19;19918;-72
2023/04/10 06:46:08;;;;;;;31.15;17.75;;;7.90;99.90;;;;;;7402913;19;19921;-72
2023/04/10 06:48:37;;;;;;;;;;;8.00;99.90;;;;;;7405799;19;20322;-72
2023/04/10 06:51:06;;;;;;;32.80;19.25;;;8.10;99.90;;;;;;7402512;19;19923;-72
2023/04/10 06:53:35;;;;;;;36.70;18.83;;;8.10;99.90;;;;;;7402618;19;19926;-72
2023/04/10 06:56:04;;;;;;;34.30;18.65;;;8.10;99.90;;;;;;7402524;19;19925;-73
2023/04/10 06:58:33;;;;;;;32.53;19.25;;;8.30;99.90;;;;;;7404288;19;20010;-72
2023/04/10 07:01:03;;;;;;;31.75;17.92;;;8.20;99.90;;;;;;7402882;19;19929;-72
2023/04/10 07:03:35;;;;;;;31.55;18.50;;;8.20;99.90;;;;;;7403667;19;19929;-72
2023/04/10 07:06:04;;;;;;;33.15;19.13;;;8.30;99.90;;;;;;7402157;19;20259;-72
2023/04/10 07:08:33;;;;;;;33.92;18.70;;;8.40;99.90;;;;;;7401655;19;19927;-72
2023/04/10 07:11:02;;;;;;;34.15;19.80;;;8.40;99.90;;;;;;7402221;19;19925;-72
2023/04/10 07:13:30;;;;;;;36.00;18.10;;;8.50;99.90;;;;;;7402018;19;19941;-71
2023/04/10 07:16:00;;;;;;;33.97;18.83;;;8.50;99.90;;;;;;7404228;19;20643;-72
2023/04/10 07:18:29;;;;;;;29.05;18.35;;;8.50;99.90;;;;;;7401487;19;19919;-73
2023/04/10 07:21:01;;;;;;;32.63;18.50;;;8.60;99.90;;;;;;7401783;19;19917;-72
2023/04/10 07:23:30;;;;;;;37.45;18.75;;;8.70;99.90;;;;;;7400939;19;20298;-71
2023/04/10 07:25:58;;;;;;;29.42;18.50;;;8.90;99.90;;;;;;7400459;19;20307;-72
2023/04/10 07:28:27;;;;;;;33.38;19.13;;;8.90;99.90;;;;;;7401566;19;19914;-73
2023/04/10 07:30:56;;;;;;;27.75;16.40;;;8.80;99.90;;;;;;7401702;19;19929;-73
2023/04/10 07:33:25;;;;;;;33.67;18.20;;;9.00;99.90;;;;;;7405413;19;19929;-73
2023/04/10 07:35:54;;;;;;;26.95;15.77;;;9.00;99.90;;;;;;7404331;19;20398;-73
2023/04/10 07:38:26;;;;;;;31.50;16.50;;;9.20;99.90;;;;;;7403577;19;19950;-73
2023/04/10 07:40:58;;;;;;;29.63;15.85;;;9.20;99.90;;;;;;7403814;19;19925;-73
2023/04/10 07:43:27;;;;;;;25.75;14.98;;;9.20;99.90;;;;;;7400803;19;19942;-73
2023/04/10 07:45:57;;;;;;;26.85;15.57;;;9.20;99.90;;;;;;7401076;19;19914;-73
2023/04/10 07:48:26;;;;;;;23.20;15.50;;;9.20;99.90;;;;;;7401615;19;19925;-73
2023/04/10 07:50:55;;;;;;;25.17;14.98;;;9.30;99.90;;;;;;7405773;19;19922;-74
2023/04/10 07:53:26;;;;;;;27.13;15.98;;;9.40;99.90;;;;;;7401322;19;20280;-72
2023/04/10 07:55:55;;;;;;;24.88;15.13;;;9.50;99.90;;;;;;7400771;19;19914;-70
2023/04/10 07:58:24;;;;;;;23.60;14.73;;;9.50;99.90;;;;;;7401572;19;19915;-70
2023/04/10 08:00:53;;;;;;;23.80;13.23;;;9.60;99.90;;;;;;7401467;19;20827;-71
2023/04/10 08:03:22;;;;;;;25.15;14.50;;;9.60;99.90;;;;;;7400680;19;19917;-71
2023/04/10 08:05:51;;;;;;;25.02;14.52;;;9.70;99.90;;;;;;7402468;19;19918;-71
2023/04/10 08:08:20;;;;;;;23.02;14.43;;;9.90;99.90;;;;;;7400390;19;20375;-71
2023/04/10 08:10:52;;;;;;;22.88;13.45;;;9.80;99.90;;;;;;7400703;19;19923;-71
2023/04/10 08:13:21;;;;;;;20.63;12.95;;;10.00;99.90;;;;;;7400650;19;19919;-71
2023/04/10 08:15:50;;;;;;;23.23;12.38;;;10.00;99.90;;;;;;7401796;19;19922;-71
2023/04/10 08:18:19;;;;;;;21.38;12.10;;;10.40;99.90;;;;;;7400355;19;19933;-71
2023/04/10 08:20:48;;;;;;;20.88;11.90;;;10.30;99.90;;;;;;7400739;19;19910;-71
2023/04/10 08:23:17;;;;;;;21.23;11.43;;;10.30;99.90;;;;;;7400615;19;19938;-71
2023/04/10 08:25:46;;;;;;;17.30;11.25;;;10.40;99.90;;;;;;7399266;19;20330;-71
2023/04/10 08:28:18;;;;;;;18.60;12.05;;;10.50;99.90;;;;;;7398890;19;19918;-71
2023/04/10 08:30:47;;;;;;;21.13;10.77;;;10.60;99.90;;;;;;7399745;19;19952;-71
2023/04/10 08:33:16;;;;;;;19.52;10.98;;;10.80;99.90;;;;;;7400259;19;19914;-71
2023/04/10 08:35:48;;;;;;;17.38;10.80;;;11.00;99.90;;;;;;7402809;19;19990;-72
2023/04/10 08:38:17;;;;;;;16.73;10.32;;;11.00;99.90;;;;;;7399830;19;19933;-72
2023/04/10 08:40:46;;;;;;;17.35;10.38;;;11.00;99.90;;;;;;7401803;19;19946;-72
2023/04/10 08:43:18;;;;;;;16.70;10.27;;;11.10;99.90;;;;;;7403578;19;19922;-71
2023/04/10 08:45:47;;;;;;;17.60;10.23;;;11.20;99.90;;;;;;7403945;19;19930;-72
2023/04/10 08:48:17;;;;;;;15.38;9.27;;;11.30;99.90;;;;;;7399500;19;20379;-72
2023/04/10 08:50:48;;;;;;;15.77;9.40;;;11.20;99.90;;;;;;7399324;19;19925;-71
2023/04/10 08:53:19;;;;;;;15.88;8.85;;;11.30;99.90;;;;;;7399021;19;19930;-72
2023/04/10 08:55:49;;;;;;;13.38;9.00;;;11.30;99.90;;;;;;7398649;19;19931;-72
2023/04/10 08:58:21;;;;;;;14.80;10.00;;;11.30;99.90;;;;;;7402052;19;20333;-72
2023/04/10 09:00:50;;;;;;;15.13;8.75;;;11.30;99.90;;;;;;7398911;19;19932;-73
2023/04/10 09:03:19;;;;;;;12.93;8.25;;;11.10;99.90;;;;;;7398574;19;19928;-72
2023/04/10 09:05:48;;;;;;;15.23;8.43;;;11.30;99.90;;;;;;7402172;19;19935;-72
2023/04/10 09:08:17;;;;;;;12.98;7.85;;;11.50;99.90;;;;;;7398440;19;19914;-71
2023/04/10 09:10:46;;;;;;;13.57;8.10;;;11.40;99.90;;;;;;7401344;19;19915;-74
2023/04/10 09:13:15;;;;;;;11.75;8.05;;;11.70;99.90;;;;;;7398701;19;20365;-73
2023/04/10 09:16:01;;;;;;;12.10;8.05;;;11.80;99.90;;;;;;7402738;19;20649;-72
2023/04/10 09:18:47;;;;;;;10.10;7.40;;;12.00;99.90;;;;;;7398319;19;19922;-73
2023/04/10 09:21:18;;;;;;;11.77;7.47;;;12.00;99.90;;;;;;7398320;19;20351;-73
2023/04/10 09:23:48;;;;;;;12.35;7.65;;;12.10;99.90;;;;;;7396886;19;20256;-73
2023/04/10 09:26:30;;;;;;;10.23;6.97;;;12.20;99.90;;;;;;7397712;19;19941;-73
2023/04/10 09:29:03;;;;;;;10.70;6.60;;;12.20;99.90;;;;;;7398029;19;19953;-72
2023/04/10 09:31:36;;;;;;;11.52;7.47;;;11.90;99.90;;;;;;7400038;19;20375;-72
2023/04/10 09:34:13;;;;;;;12.13;7.85;;;12.10;99.90;;;;;;7400573;19;19925;-73
2023/04/10 09:36:42;;;;;;;10.27;7.28;;;12.20;99.90;;;;;;7399455;19;19985;-73
2023/04/10 09:39:12;;;;;;;10.82;6.90;;;12.10;99.90;;;;;;7398129;19;19942;-73
2023/04/10 09:41:53;;;;;;;12.18;7.32;;;12.30;99.90;;;;;;7404914;19;19925;-73
2023/04/10 09:44:32;;;;;;;15.25;7.78;;;12.40;99.90;;;;;;7403220;19;19914;-73
2023/04/10 09:47:18;;;;;;;11.23;7.32;;;12.40;99.90;;;;;;7404559;19;19921;-73
2023/04/10 09:49:48;;;;;;;10.80;7.53;;;12.40;99.90;;;;;;7408945;19;19922;-73
2023/04/10 09:52:21;;;;;;;11.88;7.45;;;12.50;99.90;;;;;;7404448;19;19910;-73
2023/04/10 09:54:50;;;;;;;11.65;6.80;;;12.60;99.90;;;;;;7403935;19;19918;-73
2023/04/10 09:57:21;;;;;;;9.93;6.47;;;12.70;99.90;;;;;;7404209;19;20351;-73
2023/04/10 09:59:53;;;;;;;11.20;6.80;;;12.90;99.90;;;;;;7404115;19;19918;-73
2023/04/10 10:02:28;;;;;;;11.95;7.75;;;13.00;99.90;;;;;;7405517;19;19918;-73
2023/04/10 10:04:59;;;;;;;12.77;6.57;;;13.10;99.90;;;;;;7404032;19;19926;-72
2023/04/10 10:07:29;;;;;;;9.50;6.13;;;13.00;99.90;;;;;;7403309;19;20070;-72
2023/04/10 10:09:59;;;;;;;11.00;6.13;;;13.10;99.90;;;;;;7403875;19;19919;-73
2023/04/10 10:12:32;;;;;;;10.60;6.00;;;13.10;99.90;;;;;;7403267;19;19919;-73
2023/04/10 10:15:07;;;;;;;10.52;6.70;;;13.10;99.90;;;;;;7403571;19;19915;-72
2023/04/10 10:17:45;;;;;;;11.60;6.97;;;13.10;99.90;;;;;;7403807;19;19915;-72
2023/04/10 10:20:18;;;;;;;10.82;6.40;;;13.10;99.90;;;;;;7403408;19;19914;-73
2023/04/10 10:22:49;;;;;;;10.63;7.00;;;13.20;99.90;;;;;;7405477;19;19925;-72
2023/04/10 10:25:18;;;;;;;11.27;6.07;;;13.30;99.90;;;;;;7400937;19;19942;-72
2023/04/10 10:27:48;;;;;;;9.57;6.07;;;13.40;99.90;;;;;;7401563;19;20370;-73
2023/04/10 10:30:20;;;;;;;10.05;6.90;;;13.40;99.90;;;;;;7403172;19;19918;-72
2023/04/10 10:32:52;;;;;;;12.38;5.78;;;13.50;99.90;;;;;;7404021;19;19922;-72
2023/04/10 10:35:21;;;;;;;10.88;6.15;;;13.60;99.90;;;;;;7403949;19;20364;-72
2023/04/10 10:37:50;;;;;;;9.32;5.55;;;13.70;99.90;;;;;;7407046;19;19918;-72
2023/04/10 10:40:24;;;;;;;9.30;6.60;;;13.80;99.90;;;;;;7406089;19;19982;-72
2023/04/10 10:43:13;;;;;;;9.20;5.22;;;13.90;99.90;;;;;;7402717;19;19922;-72
2023/04/10 10:45:49;;;;;;;8.55;5.70;;;14.00;99.90;;;;;;7400538;19;19942;-72
2023/04/10 10:48:21;;;;;;;9.68;5.30;;;14.10;99.90;;;;;;7402874;19;19922;-72
2023/04/10 10:50:56;;;;;;;8.35;5.70;;;14.10;99.90;;;;;;7402281;19;20248;-72
2023/04/10 10:53:40;;;;;;;8.60;5.72;;;14.20;99.90;;;;;;7401600;19;19930;-72
2023/04/10 10:56:37;;;;;;;7.88;5.05;;;14.20;99.90;;;;;;7403345;19;19922;-72
2023/04/10 10:59:06;;;;;;;8.65;5.80;;;14.10;99.90;;;;;;7401801;19;19912;-74
2023/04/10 11:01:35;;;;;;;6.15;4.90;;;14.20;99.90;;;;;;7402345;19;19922;-72
2023/04/10 11:04:42;;;;;;;9.35;5.50;;;14.30;99.90;;;;;;7403308;19;19918;-72
2023/04/10 11:07:11;;;;;;;8.18;5.07;;;14.30;99.90;;;;;;7405560;19;19916;-72
2023/04/10 11:09:52;;;;;;;8.57;5.35;;;14.40;99.90;;;;;;7404884;19;19934;-71
2023/04/10 11:12:23;;;;;;;8.90;5.28;;;14.30;99.90;;;;;;7399366;19;19978;-71
2023/04/10 11:15:00;;;;;;;6.57;4.70;;;14.50;99.90;;;;;;7405585;19;19954;-71
2023/04/10 11:17:54;;;;;;;5.95;4.20;;;14.20;99.90;;;;;;7400870;19;19921;-72
2023/04/10 11:20:27;;;;;;;8.35;4.53;;;14.10;99.90;;;;;;7400606;19;19923;-71
2023/04/10 11:23:10;;;;;;;6.13;3.92;;;14.00;99.90;;;;;;7400347;19;20002;-72
2023/04/10 11:25:51;;;;;;;;;;;14.00;99.90;;;;;;7400383;19;19915;-71
2023/04/10 11:28:36;;;;;;;6.38;4.38;;;14.10;99.90;;;;;;7400978;19;19938;-71
2023/04/10 11:31:23;;;;;;;5.90;4.03;;;14.10;99.90;;;;;;7403630;19;19922;-71
2023/04/10 11:34:02;;;;;;;7.70;4.20;;;14.10;99.90;;;;;;7401605;19;19983;-71
2023/04/10 11:36:34;;;;;;;6.47;4.60;;;14.00;99.90;;;;;;7402948;19;19922;-71
2023/04/10 11:39:07;;;;;;;7.75;4.68;;;14.20;99.90;;;;;;7401140;19;20256;-71
2023/04/10 11:41:37;;;;;;;8.10;4.45;;;14.10;99.90;;;;;;7400883;19;19938;-71
2023/04/10 11:44:09;;;;;;;7.00;4.50;;;14.20;99.90;;;;;;7400595;19;19942;-71
2023/04/10 11:46:39;;;;;;;6.22;4.80;;;14.20;99.90;;;;;;7400914;19;19921;-70
2023/04/10 11:49:09;;;;;;;7.80;4.28;;;14.30;99.90;;;;;;7400872;19;19919;-71
2023/04/10 11:51:41;;;;;;;6.88;4.25;;;14.30;99.90;;;;;;7400926;19;19925;-71
2023/04/10 11:54:12;;;;;;;7.15;4.68;;;14.30;99.90;;;;;;7400199;19;19915;-71
2023/04/10 11:56:43;;;;;;;7.82;4.63;;;14.50;99.90;;;;;;7400400;19;19917;-72
2023/04/10 11:59:14;;;;;;;7.05;4.18;;;14.40;99.90;;;;;;7400699;19;19925;-71
2023/04/10 12:01:44;;;;;;;7.53;4.40;;;14.40;99.90;;;;;;7400294;19;19915;-71
2023/04/10 12:04:17;;;;;;;10.13;4.07;;;14.40;99.90;;;;;;7398653;19;20463;-71
2023/04/10 12:06:49;;;;;;;6.85;4.50;;;14.60;99.90;;;;;;7404039;19;19938;-71
2023/04/10 12:09:21;;;;;;;6.72;4.25;;;14.50;99.90;;;;;;7402725;19;20265;-71
2023/04/10 12:11:52;;;;;;;5.38;3.83;;;14.60;99.90;;;;;;7399671;19;19907;-72
2023/04/10 12:14:21;;;;;;;6.32;3.53;;;14.70;99.90;;;;;;7399696;19;19925;-72
2023/04/10 12:16:51;;;;;;;7.45;4.18;;;14.80;99.90;;;;;;7399686;19;19910;-72
2023/04/10 12:19:22;;;;;;;8.88;3.47;;;14.70;99.90;;;;;;7399639;19;19926;-71
2023/04/10 12:21:54;;;;;;;9.00;3.55;;;14.70;99.90;;;;;;7402088;19;19927;-72
2023/04/10 12:24:46;;;;;;;5.03;3.35;;;14.60;99.90;;;;;;7398257;19;19994;-72
2023/04/10 12:27:19;;;;;;;5.30;3.15;;;14.70;99.90;;;;;;7398005;19;19923;-72
2023/04/10 12:29:48;;;;;;;6.30;3.25;;;14.60;99.90;;;;;;7401954;19;19928;-72
2023/04/10 12:32:18;;;;;;;4.63;3.28;;;14.80;99.90;;;;;;7399259;19;19974;-71
2023/04/10 12:34:52;;;;;;;5.22;3.08;;;14.80;99.90;;;;;;7399405;19;19918;-72
2023/04/10 12:37:24;;;;;;;4.85;3.40;;;14.90;99.90;;;;;;7399599;19;19911;-71
2023/04/10 12:39:54;;;;;;;5.07;3.78;;;15.00;99.90;;;;;;7402916;19;19919;-72
2023/04/10 12:42:26;;;;;;;5.43;3.50;;;15.10;99.90;;;;;;7401072;19;19918;-71
2023/04/10 12:44:55;;;;;;;;;;;15.10;99.90;;;;;;7403225;19;19918;-72
2023/04/10 12:47:24;;;;;;;3.42;2.95;;;15.30;99.90;;;;;;7398966;19;19922;-71
2023/04/10 12:50:07;;;;;;;6.70;3.08;;;15.40;99.90;;;;;;7398638;19;19922;-72
2023/04/10 12:52:40;;;;;;;6.75;2.92;;;15.50;99.90;;;;;;7398652;19;19937;-72
2023/04/10 12:55:14;;;;;;;4.93;3.90;;;15.50;99.90;;;;;;7398981;19;19919;-72
2023/04/10 12:57:45;;;;;;;4.47;2.65;;;15.40;99.90;;;;;;7398378;19;19941;-72
2023/04/10 13:00:16;;;;;;;4.07;2.60;;;15.50;99.90;;;;;;7398406;19;20689;-72
2023/04/10 13:02:45;;;;;;;5.38;2.53;;;15.30;99.90;;;;;;7398203;19;19918;-72